sensor_id;sensor_type;location;lat;lon;timestamp;pressure;altitude;pressure_sealevel;temperature;humidity
3544;BME280;1786;52.870;9.578;2023-01-30T00:00:04;100263.59;;;9.49;69.00
3544;BME280;1786;52.870;9.578;2023-01-30T00:02:31;100269.09;;;9.32;69.88
3544;BME280;1786;52.870;9.578;2023-01-30T00:04:58;100281.34;;;9.33;69.66
3544;BME280;1786;52.870;9.578;2023-01-30T00:07:24;100297.81;;;9.37;69.77
3544;BME280;1786;52.870;9.578;2023-01-30T00:09:51;100301.56;;;9.88;67.88
3544;BME280;1786;52.870;9.578;2023-01-30T00:12:17;100315.69;;;10.42;67.26
3544;BME280;1786;52.870;9.578;2023-01-30T00:14:44;100301.78;;;9.85;67.84
3544;BME280;1786;52.870;9.578;2023-01-30T00:17:10;100287.94;;;9.67;68.51
3544;BME280;1786;52.870;9.578;2023-01-30T00:19:37;100296.97;;;10.05;67.65
3544;BME280;1786;52.870;9.578;2023-01-30T00:22:03;100281.00;;;9.66;68.73
3544;BME280;1786;52.870;9.578;2023-01-30T00:24:30;100271.59;;;9.89;68.13
3544;BME280;1786;52.870;9.578;2023-01-30T00:26:57;100252.72;;;9.95;68.27
3544;BME280;1786;52.870;9.578;2023-01-30T00:29:24;100233.31;;;9.69;68.55
3544;BME280;1786;52.870;9.578;2023-01-30T00:31:50;100235.91;;;9.84;68.36
3544;BME280;1786;52.870;9.578;2023-01-30T00:34:17;100234.06;;;9.03;71.02
3544;BME280;1786;52.870;9.578;2023-01-30T00:36:43;100226.19;;;9.57;69.87
3544;BME280;1786;52.870;9.578;2023-01-30T00:39:14;100221.03;;;9.56;70.18
3544;BME280;1786;52.870;9.578;2023-01-30T00:41:41;100221.41;;;9.49;69.72
3544;BME280;1786;52.870;9.578;2023-01-30T00:44:26;100213.84;;;9.97;68.79
3544;BME280;1786;52.870;9.578;2023-01-30T00:47:12;100200.94;;;9.80;69.37
3544;BME280;1786;52.870;9.578;2023-01-30T00:49:38;100204.03;;;9.60;68.95
3544;BME280;1786;52.870;9.578;2023-01-30T00:52:05;100186.41;;;10.00;68.82
3544;BME280;1786;52.870;9.578;2023-01-30T00:54:32;100187.84;;;10.57;67.37
3544;BME280;1786;52.870;9.578;2023-01-30T00:56:59;100183.53;;;10.56;66.54
3544;BME280;1786;52.870;9.578;2023-01-30T00:59:26;100186.38;;;10.40;67.28
3544;BME280;1786;52.870;9.578;2023-01-30T01:01:53;100170.31;;;10.43;67.46
3544;BME280;1786;52.870;9.578;2023-01-30T01:04:20;100155.94;;;10.47;67.50
3544;BME280;1786;52.870;9.578;2023-01-30T01:06:47;100151.75;;;10.94;66.25
3544;BME280;1786;52.870;9.578;2023-01-30T01:09:13;100139.56;;;10.55;67.54
3544;BME280;1786;52.870;9.578;2023-01-30T01:11:40;100136.28;;;10.64;66.82
3544;BME280;1786;52.870;9.578;2023-01-30T01:14:06;100132.66;;;10.65;67.36
3544;BME280;1786;52.870;9.578;2023-01-30T01:16:35;100115.88;;;10.15;67.63
3544;BME280;1786;52.870;9.578;2023-01-30T01:19:02;100099.97;;;10.29;68.61
3544;BME280;1786;52.870;9.578;2023-01-30T01:21:29;100106.75;;;10.70;66.93
3544;BME280;1786;52.870;9.578;2023-01-30T01:23:58;100110.72;;;10.26;68.31
3544;BME280;1786;52.870;9.578;2023-01-30T01:26:26;100098.19;;;11.27;65.37
3544;BME280;1786;52.870;9.578;2023-01-30T01:28:54;100098.47;;;10.38;68.14
3544;BME280;1786;52.870;9.578;2023-01-30T01:31:21;100071.16;;;10.63;67.74
3544;BME280;1786;52.870;9.578;2023-01-30T01:33:50;100081.34;;;10.80;67.29
3544;BME280;1786;52.870;9.578;2023-01-30T01:36:17;100066.13;;;10.84;67.57
3544;BME280;1786;52.870;9.578;2023-01-30T01:39:04;100079.03;;;10.52;68.00
3544;BME280;1786;52.870;9.578;2023-01-30T01:41:30;100069.97;;;11.04;66.78
3544;BME280;1786;52.870;9.578;2023-01-30T01:44:11;100067.50;;;10.90;67.64
3544;BME280;1786;52.870;9.578;2023-01-30T01:46:50;100076.78;;;11.19;67.22
3544;BME280;1786;52.870;9.578;2023-01-30T01:49:22;100061.59;;;12.03;65.22
3544;BME280;1786;52.870;9.578;2023-01-30T01:52:01;100053.31;;;10.91;67.46
3544;BME280;1786;52.870;9.578;2023-01-30T01:57:08;100049.47;;;11.54;66.15
3544;BME280;1786;52.870;9.578;2023-01-30T02:02:51;100022.06;;;10.85;68.45
3544;BME280;1786;52.870;9.578;2023-01-30T02:05:21;100008.13;;;10.58;69.32
3544;BME280;1786;52.870;9.578;2023-01-30T02:07:52;100014.47;;;10.80;69.45
3544;BME280;1786;52.870;9.578;2023-01-30T02:10:31;99990.66;;;11.04;67.75
3544;BME280;1786;52.870;9.578;2023-01-30T02:13:02;99989.78;;;11.03;68.04
3544;BME280;1786;52.870;9.578;2023-01-30T02:15:28;99984.97;;;11.33;67.63
3544;BME280;1786;52.870;9.578;2023-01-30T02:17:55;99988.69;;;10.95;69.08
3544;BME280;1786;52.870;9.578;2023-01-30T02:23:06;99988.97;;;12.83;64.46
3544;BME280;1786;52.870;9.578;2023-01-30T02:26:18;99969.38;;;11.05;68.46
3544;BME280;1786;52.870;9.578;2023-01-30T02:35:02;99971.25;;;11.27;68.17
3544;BME280;1786;52.870;9.578;2023-01-30T02:37:53;99969.59;;;10.67;69.95
3544;BME280;1786;52.870;9.578;2023-01-30T02:40:41;99959.34;;;10.87;69.88
3544;BME280;1786;52.870;9.578;2023-01-30T02:43:36;99948.72;;;10.99;69.54
3544;BME280;1786;52.870;9.578;2023-01-30T02:46:16;99950.56;;;11.21;69.41
3544;BME280;1786;52.870;9.578;2023-01-30T02:48:48;99953.91;;;11.23;69.81
3544;BME280;1786;52.870;9.578;2023-01-30T02:51:22;99953.16;;;10.99;71.04
3544;BME280;1786;52.870;9.578;2023-01-30T02:53:49;99934.44;;;10.78;71.24
3544;BME280;1786;52.870;9.578;2023-01-30T02:56:18;99925.28;;;11.06;70.29
3544;BME280;1786;52.870;9.578;2023-01-30T02:58:57;99913.53;;;12.11;66.97
3544;BME280;1786;52.870;9.578;2023-01-30T03:09:46;99892.38;;;11.44;69.99
3544;BME280;1786;52.870;9.578;2023-01-30T03:12:51;99895.50;;;11.04;71.06
3544;BME280;1786;52.870;9.578;2023-01-30T03:15:30;99890.88;;;12.30;67.40
3544;BME280;1786;52.870;9.578;2023-01-30T03:18:00;99887.25;;;12.63;66.07
3544;BME280;1786;52.870;9.578;2023-01-30T03:20:27;99884.66;;;12.94;65.09
3544;BME280;1786;52.870;9.578;2023-01-30T03:22:54;99884.66;;;12.20;67.04
3544;BME280;1786;52.870;9.578;2023-01-30T03:25:23;99885.41;;;11.65;69.49
3544;BME280;1786;52.870;9.578;2023-01-30T03:27:53;99887.47;;;11.28;70.46
3544;BME280;1786;52.870;9.578;2023-01-30T03:30:24;99882.31;;;11.38;70.58
3544;BME280;1786;52.870;9.578;2023-01-30T03:32:58;99870.66;;;11.52;69.84
3544;BME280;1786;52.870;9.578;2023-01-30T03:35:25;99861.38;;;11.12;71.45
3544;BME280;1786;52.870;9.578;2023-01-30T03:37:53;99870.00;;;10.92;71.56
3544;BME280;1786;52.870;9.578;2023-01-30T03:40:20;99862.81;;;11.27;71.01
3544;BME280;1786;52.870;9.578;2023-01-30T03:42:47;99849.22;;;11.77;69.42
3544;BME280;1786;52.870;9.578;2023-01-30T03:45:13;99856.34;;;11.43;70.10
3544;BME280;1786;52.870;9.578;2023-01-30T03:47:42;99852.09;;;10.84;72.14
3544;BME280;1786;52.870;9.578;2023-01-30T03:50:09;99848.16;;;11.12;71.46
3544;BME280;1786;52.870;9.578;2023-01-30T03:52:36;99852.97;;;11.52;70.68
3544;BME280;1786;52.870;9.578;2023-01-30T03:55:07;99847.19;;;11.58;70.79
3544;BME280;1786;52.870;9.578;2023-01-30T03:57:34;99831.50;;;11.89;69.12
3544;BME280;1786;52.870;9.578;2023-01-30T04:00:01;99842.56;;;11.83;69.60
3544;BME280;1786;52.870;9.578;2023-01-30T04:02:41;99838.75;;;11.76;70.07
3544;BME280;1786;52.870;9.578;2023-01-30T04:05:09;99830.81;;;11.76;70.18
3544;BME280;1786;52.870;9.578;2023-01-30T04:07:39;99830.81;;;11.76;70.29
3544;BME280;1786;52.870;9.578;2023-01-30T04:10:08;99835.97;;;11.77;70.28
3544;BME280;1786;52.870;9.578;2023-01-30T04:12:35;99835.72;;;11.91;70.13
3544;BME280;1786;52.870;9.578;2023-01-30T04:15:02;99831.88;;;11.96;69.62
3544;BME280;1786;52.870;9.578;2023-01-30T04:17:48;99826.16;;;12.65;68.20
3544;BME280;1786;52.870;9.578;2023-01-30T04:20:35;99825.91;;;11.48;71.33
3544;BME280;1786;52.870;9.578;2023-01-30T04:23:01;99826.22;;;11.89;70.94
3544;BME280;1786;52.870;9.578;2023-01-30T04:25:29;99826.47;;;11.75;71.18
3544;BME280;1786;52.870;9.578;2023-01-30T04:27:56;99819.91;;;12.12;70.52
3544;BME280;1786;52.870;9.578;2023-01-30T04:30:27;99799.97;;;11.86;71.25
3544;BME280;1786;52.870;9.578;2023-01-30T04:33:12;99805.97;;;12.31;70.08
3544;BME280;1786;52.870;9.578;2023-01-30T04:35:38;99803.41;;;12.41;69.62
3544;BME280;1786;52.870;9.578;2023-01-30T04:38:05;99792.59;;;12.12;71.02
3544;BME280;1786;52.870;9.578;2023-01-30T04:40:31;99791.13;;;11.87;71.53
3544;BME280;1786;52.870;9.578;2023-01-30T04:42:58;99782.41;;;11.85;72.16
3544;BME280;1786;52.870;9.578;2023-01-30T04:45:45;99792.19;;;11.73;72.33
3544;BME280;1786;52.870;9.578;2023-01-30T04:48:13;99785.22;;;12.16;71.32
3544;BME280;1786;52.870;9.578;2023-01-30T04:50:43;99787.69;;;12.28;71.19
3544;BME280;1786;52.870;9.578;2023-01-30T04:53:10;99775.44;;;11.84;71.88
3544;BME280;1786;52.870;9.578;2023-01-30T04:55:37;99781.66;;;12.05;71.88
3544;BME280;1786;52.870;9.578;2023-01-30T04:58:04;99787.84;;;11.95;71.95
3544;BME280;1786;52.870;9.578;2023-01-30T05:00:31;99784.59;;;11.80;73.10
3544;BME280;1786;52.870;9.578;2023-01-30T05:02:59;99787.31;;;12.33;71.06
3544;BME280;1786;52.870;9.578;2023-01-30T05:05:26;99778.34;;;11.92;72.32
3544;BME280;1786;52.870;9.578;2023-01-30T05:07:53;99775.47;;;11.73;73.36
3544;BME280;1786;52.870;9.578;2023-01-30T05:10:20;99772.63;;;11.64;74.21
3544;BME280;1786;52.870;9.578;2023-01-30T05:12:46;99776.25;;;12.28;71.86
3544;BME280;1786;52.870;9.578;2023-01-30T05:15:13;99775.28;;;11.53;74.41
3544;BME280;1786;52.870;9.578;2023-01-30T05:17:40;99764.59;;;11.98;72.99
3544;BME280;1786;52.870;9.578;2023-01-30T05:20:11;99748.41;;;11.69;73.82
3544;BME280;1786;52.870;9.578;2023-01-30T05:22:38;99769.09;;;11.75;74.08
3544;BME280;1786;52.870;9.578;2023-01-30T05:25:05;99767.47;;;11.52;74.77
3544;BME280;1786;52.870;9.578;2023-01-30T05:27:32;99788.31;;;12.21;72.78
3544;BME280;1786;52.870;9.578;2023-01-30T05:29:58;99785.69;;;12.21;72.33
3544;BME280;1786;52.870;9.578;2023-01-30T05:32:25;99780.75;;;12.37;72.04
3544;BME280;1786;52.870;9.578;2023-01-30T05:34:52;99785.94;;;12.18;72.03
3544;BME280;1786;52.870;9.578;2023-01-30T05:37:19;99793.75;;;12.19;71.95
3544;BME280;1786;52.870;9.578;2023-01-30T05:39:45;99774.25;;;11.77;72.92
3544;BME280;1786;52.870;9.578;2023-01-30T05:42:13;99781.00;;;11.92;72.26
3544;BME280;1786;52.870;9.578;2023-01-30T05:44:40;99766.97;;;11.58;72.88
3544;BME280;1786;52.870;9.578;2023-01-30T05:47:06;99770.56;;;11.68;73.39
3544;BME280;1786;52.870;9.578;2023-01-30T05:49:33;99777.47;;;11.91;72.84
3544;BME280;1786;52.870;9.578;2023-01-30T05:51:59;99788.91;;;11.81;72.67
3544;BME280;1786;52.870;9.578;2023-01-30T05:54:26;99779.56;;;12.20;71.44
3544;BME280;1786;52.870;9.578;2023-01-30T05:56:52;99781.66;;;12.05;72.55
3544;BME280;1786;52.870;9.578;2023-01-30T05:59:19;99784.75;;;12.10;71.52
3544;BME280;1786;52.870;9.578;2023-01-30T06:01:46;99774.06;;;12.33;70.69
3544;BME280;1786;52.870;9.578;2023-01-30T06:04:12;99780.38;;;12.42;69.97
3544;BME280;1786;52.870;9.578;2023-01-30T06:06:39;99785.69;;;12.21;70.26
3544;BME280;1786;52.870;9.578;2023-01-30T06:09:05;99781.41;;;12.08;71.31
3544;BME280;1786;52.870;9.578;2023-01-30T06:11:32;99778.63;;;12.10;71.02
3544;BME280;1786;52.870;9.578;2023-01-30T06:13:59;99780.91;;;12.56;68.78
3544;BME280;1786;52.870;9.578;2023-01-30T06:16:25;99796.91;;;12.13;70.11
3544;BME280;1786;52.870;9.578;2023-01-30T06:18:52;99796.22;;;12.32;69.66
3544;BME280;1786;52.870;9.578;2023-01-30T06:21:18;99796.66;;;12.16;69.79
3544;BME280;1786;52.870;9.578;2023-01-30T06:23:45;99801.16;;;11.50;71.67
3544;BME280;1786;52.870;9.578;2023-01-30T06:26:11;99810.66;;;11.30;71.88
3544;BME280;1786;52.870;9.578;2023-01-30T06:28:38;99809.69;;;11.42;71.71
3544;BME280;1786;52.870;9.578;2023-01-30T06:31:06;99817.59;;;11.87;70.19
3544;BME280;1786;52.870;9.578;2023-01-30T06:33:33;99821.06;;;11.87;69.83
3544;BME280;1786;52.870;9.578;2023-01-30T06:36:00;99824.53;;;11.77;69.90
3544;BME280;1786;52.870;9.578;2023-01-30T06:38:26;99827.34;;;11.53;70.37
3544;BME280;1786;52.870;9.578;2023-01-30T06:40:53;99815.09;;;11.40;70.18
3544;BME280;1786;52.870;9.578;2023-01-30T06:43:20;99824.78;;;11.74;69.56
3544;BME280;1786;52.870;9.578;2023-01-30T06:45:47;99814.78;;;11.88;69.30
3544;BME280;1786;52.870;9.578;2023-01-30T06:48:13;99822.72;;;11.88;69.14
3544;BME280;1786;52.870;9.578;2023-01-30T06:50:40;99824.66;;;11.98;68.81
3544;BME280;1786;52.870;9.578;2023-01-30T06:53:07;99824.75;;;12.07;67.81
3544;BME280;1786;52.870;9.578;2023-01-30T06:55:34;99832.84;;;12.27;67.68
3544;BME280;1786;52.870;9.578;2023-01-30T07:00:29;99822.75;;;12.53;66.60
3544;BME280;1786;52.870;9.578;2023-01-30T07:02:56;99829.81;;;13.15;64.58
3544;BME280;1786;52.870;9.578;2023-01-30T07:05:22;99830.22;;;13.41;63.96
3544;BME280;1786;52.870;9.578;2023-01-30T07:07:49;99826.78;;;12.99;64.91
3544;BME280;1786;52.870;9.578;2023-01-30T07:10:16;99837.28;;;13.01;64.29
3544;BME280;1786;52.870;9.578;2023-01-30T07:12:44;99831.06;;;12.90;64.83
3544;BME280;1786;52.870;9.578;2023-01-30T07:15:11;99843.81;;;14.66;60.21
3544;BME280;1786;52.870;9.578;2023-01-30T07:17:39;99840.09;;;13.09;64.04
3544;BME280;1786;52.870;9.578;2023-01-30T07:20:08;99830.53;;;13.58;62.36
3544;BME280;1786;52.870;9.578;2023-01-30T07:22:35;99833.69;;;11.95;66.23
3544;BME280;1786;52.870;9.578;2023-01-30T07:25:02;99842.56;;;12.05;65.99
3544;BME280;1786;52.870;9.578;2023-01-30T07:27:28;99843.28;;;12.07;66.14
3544;BME280;1786;52.870;9.578;2023-01-30T07:29:56;99845.16;;;12.17;65.61
3544;BME280;1786;52.870;9.578;2023-01-30T07:32:22;99836.81;;;12.32;65.24
3544;BME280;1786;52.870;9.578;2023-01-30T07:34:50;99835.59;;;11.93;65.85
3544;BME280;1786;52.870;9.578;2023-01-30T07:37:17;99840.50;;;12.62;65.01
3544;BME280;1786;52.870;9.578;2023-01-30T07:39:43;99837.28;;;12.59;63.97
3544;BME280;1786;52.870;9.578;2023-01-30T07:42:10;99850.00;;;12.65;63.59
3544;BME280;1786;52.870;9.578;2023-01-30T07:44:36;99850.16;;;13.15;62.42
3544;BME280;1786;52.870;9.578;2023-01-30T07:47:03;99835.34;;;12.61;63.32
3544;BME280;1786;52.870;9.578;2023-01-30T07:49:30;99834.09;;;12.11;64.66
3544;BME280;1786;52.870;9.578;2023-01-30T07:51:56;99850.06;;;12.53;63.69
3544;BME280;1786;52.870;9.578;2023-01-30T07:54:23;99855.09;;;12.56;63.59
3544;BME280;1786;52.870;9.578;2023-01-30T07:56:50;99853.72;;;12.20;64.06
3544;BME280;1786;52.870;9.578;2023-01-30T07:59:16;99882.03;;;11.86;65.58
3544;BME280;1786;52.870;9.578;2023-01-30T08:01:43;99865.66;;;12.15;64.42
3544;BME280;1786;52.870;9.578;2023-01-30T08:04:09;99868.34;;;11.92;64.39
3544;BME280;1786;52.870;9.578;2023-01-30T08:06:36;99870.53;;;12.30;64.18
3544;BME280;1786;52.870;9.578;2023-01-30T08:09:05;99872.41;;;11.96;64.85
3544;BME280;1786;52.870;9.578;2023-01-30T08:11:32;99876.84;;;12.50;64.23
3544;BME280;1786;52.870;9.578;2023-01-30T08:13:59;99874.53;;;12.78;63.10
3544;BME280;1786;52.870;9.578;2023-01-30T08:16:26;99884.63;;;12.52;63.14
3544;BME280;1786;52.870;9.578;2023-01-30T08:18:52;99879.88;;;12.02;64.25
3544;BME280;1786;52.870;9.578;2023-01-30T08:21:19;99870.22;;;12.12;64.57
3544;BME280;1786;52.870;9.578;2023-01-30T08:23:45;99862.94;;;12.79;63.21
3544;BME280;1786;52.870;9.578;2023-01-30T08:26:12;99863.66;;;12.81;62.35
3544;BME280;1786;52.870;9.578;2023-01-30T08:28:39;99867.78;;;13.16;61.23
3544;BME280;1786;52.870;9.578;2023-01-30T08:31:11;99873.47;;;13.11;62.94
3544;BME280;1786;52.870;9.578;2023-01-30T08:33:38;99868.59;;;13.37;61.58
3544;BME280;1786;52.870;9.578;2023-01-30T08:36:04;99866.72;;;13.99;59.46
3544;BME280;1786;52.870;9.578;2023-01-30T08:38:31;99871.22;;;13.58;59.91
3544;BME280;1786;52.870;9.578;2023-01-30T08:40:58;99870.84;;;12.90;61.87
3544;BME280;1786;52.870;9.578;2023-01-30T08:43:26;99871.16;;;12.76;61.87
3544;BME280;1786;52.870;9.578;2023-01-30T08:45:54;99886.41;;;12.30;63.77
3544;BME280;1786;52.870;9.578;2023-01-30T08:48:21;99861.56;;;11.99;65.92
3544;BME280;1786;52.870;9.578;2023-01-30T08:50:54;99862.84;;;12.16;65.43
3544;BME280;1786;52.870;9.578;2023-01-30T08:53:21;99871.69;;;12.05;66.60
3544;BME280;1786;52.870;9.578;2023-01-30T08:55:50;99855.31;;;12.00;66.05
3544;BME280;1786;52.870;9.578;2023-01-30T08:58:17;99876.00;;;12.06;66.68
3544;BME280;1786;52.870;9.578;2023-01-30T09:00:44;99877.75;;;12.61;65.33
3544;BME280;1786;52.870;9.578;2023-01-30T09:03:15;99882.81;;;13.06;65.11
3544;BME280;1786;52.870;9.578;2023-01-30T09:05:42;99881.50;;;13.21;63.73
3544;BME280;1786;52.870;9.578;2023-01-30T09:08:08;99864.50;;;12.82;64.52
3544;BME280;1786;52.870;9.578;2023-01-30T09:10:35;99867.78;;;13.16;63.64
3544;BME280;1786;52.870;9.578;2023-01-30T09:13:02;99872.19;;;14.07;62.29
3544;BME280;1786;52.870;9.578;2023-01-30T09:15:31;99868.72;;;14.46;59.65
3544;BME280;1786;52.870;9.578;2023-01-30T09:17:58;99864.75;;;16.11;57.23
3544;BME280;1786;52.870;9.578;2023-01-30T09:20:24;99873.91;;;16.44;54.05
3544;BME280;1786;52.870;9.578;2023-01-30T09:22:51;99873.81;;;16.54;54.55
3544;BME280;1786;52.870;9.578;2023-01-30T09:25:18;99873.13;;;16.34;54.57
3544;BME280;1786;52.870;9.578;2023-01-30T09:27:47;99876.09;;;16.49;54.21
3544;BME280;1786;52.870;9.578;2023-01-30T09:30:14;99875.47;;;15.64;55.99
3544;BME280;1786;52.870;9.578;2023-01-30T09:32:42;99859.44;;;15.08;56.42
3544;BME280;1786;52.870;9.578;2023-01-30T09:35:09;99875.44;;;15.36;56.55
3544;BME280;1786;52.870;9.578;2023-01-30T09:37:35;99868.22;;;16.65;54.54
3544;BME280;1786;52.870;9.578;2023-01-30T09:40:02;99879.75;;;15.47;54.99
3544;BME280;1786;52.870;9.578;2023-01-30T09:42:42;99863.34;;;15.04;56.88
3544;BME280;1786;52.870;9.578;2023-01-30T09:45:31;99878.31;;;17.41;51.61
3544;BME280;1786;52.870;9.578;2023-01-30T09:48:08;99885.84;;;19.29;48.41
3544;BME280;1786;52.870;9.578;2023-01-30T09:51:09;99888.75;;;18.78;49.01
3544;BME280;1786;52.870;9.578;2023-01-30T09:54:06;99883.91;;;17.30;52.42
3544;BME280;1786;52.870;9.578;2023-01-30T09:56:37;99888.34;;;15.78;54.05
3544;BME280;1786;52.870;9.578;2023-01-30T09:59:04;99883.63;;;14.08;58.58
3544;BME280;1786;52.870;9.578;2023-01-30T10:01:40;99877.53;;;13.67;60.05
3544;BME280;1786;52.870;9.578;2023-01-30T10:04:18;99884.88;;;13.54;60.96
3544;BME280;1786;52.870;9.578;2023-01-30T10:09:48;99867.66;;;12.96;61.35
3544;BME280;1786;52.870;9.578;2023-01-30T10:15:43;99865.06;;;13.27;62.00
3544;BME280;1786;52.870;9.578;2023-01-30T10:18:55;99870.16;;;14.69;59.86
3544;BME280;1786;52.870;9.578;2023-01-30T10:21:36;99867.25;;;15.20;57.30
3544;BME280;1786;52.870;9.578;2023-01-30T10:24:36;99883.13;;;15.39;56.72
3544;BME280;1786;52.870;9.578;2023-01-30T10:27:13;99867.75;;;14.66;57.94
3544;BME280;1786;52.870;9.578;2023-01-30T10:29:52;99858.13;;;13.36;61.09
3544;BME280;1786;52.870;9.578;2023-01-30T10:32:40;99870.66;;;13.64;60.85
3544;BME280;1786;52.870;9.578;2023-01-30T10:35:15;99850.44;;;13.12;61.49
3544;BME280;1786;52.870;9.578;2023-01-30T10:37:50;99844.44;;;12.89;61.96
3544;BME280;1786;52.870;9.578;2023-01-30T10:40:29;99849.53;;;12.39;62.87
3544;BME280;1786;52.870;9.578;2023-01-30T10:43:02;99847.72;;;12.39;63.41
3544;BME280;1786;52.870;9.578;2023-01-30T10:48:41;99839.47;;;12.53;64.29
3544;BME280;1786;52.870;9.578;2023-01-30T10:53:50;99832.03;;;14.01;61.94
3544;BME280;1786;52.870;9.578;2023-01-30T10:56:32;99828.56;;;14.68;59.79
3544;BME280;1786;52.870;9.578;2023-01-30T10:59:22;99829.69;;;15.23;57.70
3544;BME280;1786;52.870;9.578;2023-01-30T11:01:57;99821.97;;;14.92;57.13
3544;BME280;1786;52.870;9.578;2023-01-30T11:04:30;99823.34;;;14.96;57.85
3544;BME280;1786;52.870;9.578;2023-01-30T11:07:00;99825.63;;;15.56;57.15
3544;BME280;1786;52.870;9.578;2023-01-30T11:09:43;99822.53;;;15.33;57.52
3544;BME280;1786;52.870;9.578;2023-01-30T11:12:10;99831.44;;;15.04;58.10
3544;BME280;1786;52.870;9.578;2023-01-30T11:17:27;99827.16;;;14.45;58.67
3544;BME280;1786;52.870;9.578;2023-01-30T11:20:01;99817.47;;;13.85;60.71
3544;BME280;1786;52.870;9.578;2023-01-30T11:22:29;99825.00;;;13.30;60.46
3544;BME280;1786;52.870;9.578;2023-01-30T11:25:03;99814.91;;;13.55;61.41
3544;BME280;1786;52.870;9.578;2023-01-30T11:27:33;99819.75;;;13.19;61.52
3544;BME280;1786;52.870;9.578;2023-01-30T11:30:06;99807.44;;;12.87;62.10
3544;BME280;1786;52.870;9.578;2023-01-30T11:32:37;99811.09;;;13.17;61.88
3544;BME280;1786;52.870;9.578;2023-01-30T11:37:35;99793.81;;;12.29;64.22
3544;BME280;1786;52.870;9.578;2023-01-30T11:42:48;99806.13;;;11.86;65.83
3544;BME280;1786;52.870;9.578;2023-01-30T11:45:17;99823.03;;;12.18;66.39
3544;BME280;1786;52.870;9.578;2023-01-30T11:47:50;99807.69;;;11.78;65.62
3544;BME280;1786;52.870;9.578;2023-01-30T11:50:28;99826.38;;;11.87;65.94
3544;BME280;1786;52.870;9.578;2023-01-30T11:53:13;99828.88;;;11.66;66.29
3544;BME280;1786;52.870;9.578;2023-01-30T11:55:42;99827.47;;;11.51;66.63
3544;BME280;1786;52.870;9.578;2023-01-30T11:58:32;99819.63;;;11.61;66.05
3544;BME280;1786;52.870;9.578;2023-01-30T12:01:00;99815.34;;;12.03;65.18
3544;BME280;1786;52.870;9.578;2023-01-30T12:03:27;99808.53;;;12.22;65.35
3544;BME280;1786;52.870;9.578;2023-01-30T12:05:56;99817.91;;;12.26;64.94
3544;BME280;1786;52.870;9.578;2023-01-30T12:08:35;99835.00;;;12.96;63.93
3544;BME280;1786;52.870;9.578;2023-01-30T12:11:39;99815.16;;;13.21;62.51
3544;BME280;1786;52.870;9.578;2023-01-30T12:14:17;99802.00;;;13.40;61.42
3544;BME280;1786;52.870;9.578;2023-01-30T12:19:38;99807.63;;;13.57;61.65
3544;BME280;1786;52.870;9.578;2023-01-30T12:24:58;99800.97;;;13.01;63.65
3544;BME280;1786;52.870;9.578;2023-01-30T12:30:48;99822.97;;;13.13;63.95
3544;BME280;1786;52.870;9.578;2023-01-30T12:33:16;99811.22;;;14.45;60.81
3544;BME280;1786;52.870;9.578;2023-01-30T12:38:37;99821.88;;;13.25;63.23
3544;BME280;1786;52.870;9.578;2023-01-30T12:43:43;99826.88;;;12.88;64.54
3544;BME280;1786;52.870;9.578;2023-01-30T12:46:37;99818.31;;;12.84;65.79
3544;BME280;1786;52.870;9.578;2023-01-30T12:49:17;99808.28;;;13.39;65.33
3544;BME280;1786;52.870;9.578;2023-01-30T12:52:13;99816.59;;;13.66;63.66
3544;BME280;1786;52.870;9.578;2023-01-30T12:55:38;99813.91;;;13.25;64.53
3544;BME280;1786;52.870;9.578;2023-01-30T12:57:49;99815.00;;;13.13;63.74
3544;BME280;1786;52.870;9.578;2023-01-30T13:00:47;99826.63;;;13.21;63.34
3544;BME280;1786;52.870;9.578;2023-01-30T13:03:39;99824.06;;;12.89;64.83
3544;BME280;1786;52.870;9.578;2023-01-30T13:06:31;99822.16;;;13.53;63.80
3544;BME280;1786;52.870;9.578;2023-01-30T13:09:12;99826.00;;;13.79;62.85
3544;BME280;1786;52.870;9.578;2023-01-30T13:17:41;99838.09;;;13.62;62.08
3544;BME280;1786;52.870;9.578;2023-01-30T13:25:22;99849.25;;;12.21;64.21
3544;BME280;1786;52.870;9.578;2023-01-30T13:27:58;99861.75;;;12.30;63.54
3544;BME280;1786;52.870;9.578;2023-01-30T13:30:29;99868.47;;;11.90;63.45
3544;BME280;1786;52.870;9.578;2023-01-30T13:33:00;99874.72;;;11.89;62.73
3544;BME280;1786;52.870;9.578;2023-01-30T13:35:34;99885.44;;;11.88;63.11
3544;BME280;1786;52.870;9.578;2023-01-30T13:38:03;99888.72;;;12.24;62.49
3544;BME280;1786;52.870;9.578;2023-01-30T13:40:37;99901.03;;;12.78;61.90
3544;BME280;1786;52.870;9.578;2023-01-30T13:43:15;99886.63;;;12.71;62.18
3544;BME280;1786;52.870;9.578;2023-01-30T13:45:47;99908.00;;;12.79;62.05
3544;BME280;1786;52.870;9.578;2023-01-30T13:51:40;99918.38;;;13.24;62.32
3544;BME280;1786;52.870;9.578;2023-01-30T13:54:31;99914.06;;;14.64;59.77
3544;BME280;1786;52.870;9.578;2023-01-30T14:00:22;99950.91;;;14.09;60.52
3544;BME280;1786;52.870;9.578;2023-01-30T14:08:26;99957.28;;;12.82;63.93
3544;BME280;1786;52.870;9.578;2023-01-30T14:10:55;99968.09;;;12.90;63.97
3544;BME280;1786;52.870;9.578;2023-01-30T14:13:23;99962.19;;;13.18;63.36
3544;BME280;1786;52.870;9.578;2023-01-30T14:15:59;99963.06;;;13.08;63.63
3544;BME280;1786;52.870;9.578;2023-01-30T14:18:30;99971.06;;;14.21;59.59
3544;BME280;1786;52.870;9.578;2023-01-30T14:21:13;99969.91;;;12.57;63.48
3544;BME280;1786;52.870;9.578;2023-01-30T14:23:55;99973.41;;;12.58;63.93
3544;BME280;1786;52.870;9.578;2023-01-30T14:34:47;99971.88;;;12.44;63.79
3544;BME280;1786;52.870;9.578;2023-01-30T14:37:45;99981.75;;;12.42;64.15
3544;BME280;1786;52.870;9.578;2023-01-30T14:50:49;100020.44;;;11.99;64.95
3544;BME280;1786;52.870;9.578;2023-01-30T14:53:16;100026.44;;;12.01;65.96
3544;BME280;1786;52.870;9.578;2023-01-30T14:55:42;100035.63;;;12.20;65.21
3544;BME280;1786;52.870;9.578;2023-01-30T14:58:16;100039.22;;;12.07;65.65
3544;BME280;1786;52.870;9.578;2023-01-30T15:00:44;100068.50;;;11.70;65.77
3544;BME280;1786;52.870;9.578;2023-01-30T15:03:19;100076.50;;;11.46;66.40
3544;BME280;1786;52.870;9.578;2023-01-30T15:05:46;100084.72;;;11.66;66.73
3544;BME280;1786;52.870;9.578;2023-01-30T15:08:18;100093.78;;;11.86;66.38
3544;BME280;1786;52.870;9.578;2023-01-30T15:10:56;100091.22;;;11.97;65.84
3544;BME280;1786;52.870;9.578;2023-01-30T15:14:31;100096.97;;;11.56;66.63
3544;BME280;1786;52.870;9.578;2023-01-30T15:22:18;100118.53;;;11.98;65.05
3544;BME280;1786;52.870;9.578;2023-01-30T15:25:14;100122.81;;;13.00;62.01
3544;BME280;1786;52.870;9.578;2023-01-30T15:27:49;100128.06;;;13.87;58.81
3544;BME280;1786;52.870;9.578;2023-01-30T15:33:19;100141.13;;;12.02;63.67